sensor_id;sensor_type;location;lat;lon;timestamp;temperature;humidity
27848;DHT22;15212;48.830;8.730;2023-04-24T00:02:18;9.90;99.90
27848;DHT22;15212;48.830;8.730;2023-04-24T00:04:46;9.90;99.90
27848;DHT22;15212;48.830;8.730;2023-04-24T00:07:15;9.90;99.90
27848;DHT22;15212;48.830;8.730;2023-04-24T00:09:44;9.90;99.90
27848;DHT22;15212;48.830;8.730;2023-04-24T00:12:12;9.90;99.90
27848;DHT22;15212;48.830;8.730;2023-04-24T00:14:40;9.90;99.90
27848;DHT22;15212;48.830;8.730;2023-04-24T00:17:09;9.90;99.90
27848;DHT22;15212;48.830;8.730;2023-04-24T00:19:37;9.90;99.90
27848;DHT22;15212;48.830;8.730;2023-04-24T00:22:06;9.80;99.90
27848;DHT22;15212;48.830;8.730;2023-04-24T00:24:34;9.80;99.90
27848;DHT22;15212;48.830;8.730;2023-04-24T00:27:03;9.80;99.90
27848;DHT22;15212;48.830;8.730;2023-04-24T00:29:31;9.80;99.90
27848;DHT22;15212;48.830;8.730;2023-04-24T00:31:59;9.70;99.90
27848;DHT22;15212;48.830;8.730;2023-04-24T00:34:28;9.80;99.90
27848;DHT22;15212;48.830;8.730;2023-04-24T00:36:56;9.80;99.90
27848;DHT22;15212;48.830;8.730;2023-04-24T00:39:25;9.80;99.90
27848;DHT22;15212;48.830;8.730;2023-04-24T00:41:53;9.80;99.90
27848;DHT22;15212;48.830;8.730;2023-04-24T00:44:23;9.80;99.90
27848;DHT22;15212;48.830;8.730;2023-04-24T00:46:52;9.80;99.90
27848;DHT22;15212;48.830;8.730;2023-04-24T00:49:22;9.80;99.90
27848;DHT22;15212;48.830;8.730;2023-04-24T00:51:51;9.80;99.90
27848;DHT22;15212;48.830;8.730;2023-04-24T00:54:20;9.80;99.90
27848;DHT22;15212;48.830;8.730;2023-04-24T00:56:48;9.80;99.90
27848;DHT22;15212;48.830;8.730;2023-04-24T00:59:17;9.80;99.90
27848;DHT22;15212;48.830;8.730;2023-04-24T01:01:47;9.80;99.90
27848;DHT22;15212;48.830;8.730;2023-04-24T01:04:17;9.80;99.90
27848;DHT22;15212;48.830;8.730;2023-04-24T01:06:46;9.80;99.90
27848;DHT22;15212;48.830;8.730;2023-04-24T01:09:17;9.70;99.90
27848;DHT22;15212;48.830;8.730;2023-04-24T01:11:46;9.70;99.90
27848;DHT22;15212;48.830;8.730;2023-04-24T01:14:14;9.70;99.90
27848;DHT22;15212;48.830;8.730;2023-04-24T01:16:43;9.70;99.90
27848;DHT22;15212;48.830;8.730;2023-04-24T01:19:12;9.70;99.90
27848;DHT22;15212;48.830;8.730;2023-04-24T01:21:42;9.70;99.90
27848;DHT22;15212;48.830;8.730;2023-04-24T01:24:12;9.70;99.90
27848;DHT22;15212;48.830;8.730;2023-04-24T01:26:41;9.70;99.90
27848;DHT22;15212;48.830;8.730;2023-04-24T01:29:09;9.70;99.90
27848;DHT22;15212;48.830;8.730;2023-04-24T01:31:39;9.70;99.90
27848;DHT22;15212;48.830;8.730;2023-04-24T01:34:07;9.70;99.90
27848;DHT22;15212;48.830;8.730;2023-04-24T01:36:36;9.60;99.90
27848;DHT22;15212;48.830;8.730;2023-04-24T01:39:05;9.70;99.90
27848;DHT22;15212;48.830;8.730;2023-04-24T01:41:34;9.70;99.90
27848;DHT22;15212;48.830;8.730;2023-04-24T01:44:02;9.70;99.90
27848;DHT22;15212;48.830;8.730;2023-04-24T01:46:31;9.70;99.90
27848;DHT22;15212;48.830;8.730;2023-04-24T01:49:01;9.60;99.90
27848;DHT22;15212;48.830;8.730;2023-04-24T01:51:30;9.70;99.90
27848;DHT22;15212;48.830;8.730;2023-04-24T01:53:58;9.60;99.90
27848;DHT22;15212;48.830;8.730;2023-04-24T01:56:29;9.60;99.90
27848;DHT22;15212;48.830;8.730;2023-04-24T01:58:58;9.70;99.90
27848;DHT22;15212;48.830;8.730;2023-04-24T02:01:27;9.70;99.90
27848;DHT22;15212;48.830;8.730;2023-04-24T02:03:57;9.70;99.90
27848;DHT22;15212;48.830;8.730;2023-04-24T02:06:25;9.70;99.90
27848;DHT22;15212;48.830;8.730;2023-04-24T02:08:54;9.70;99.90
27848;DHT22;15212;48.830;8.730;2023-04-24T02:11:22;9.70;99.90
27848;DHT22;15212;48.830;8.730;2023-04-24T02:13:51;9.60;99.90
27848;DHT22;15212;48.830;8.730;2023-04-24T02:16:20;9.60;99.90
27848;DHT22;15212;48.830;8.730;2023-04-24T02:18:48;9.60;99.90
27848;DHT22;15212;48.830;8.730;2023-04-24T02:21:17;9.50;99.90
27848;DHT22;15212;48.830;8.730;2023-04-24T02:23:45;9.40;99.90
27848;DHT22;15212;48.830;8.730;2023-04-24T02:26:13;9.40;99.90
27848;DHT22;15212;48.830;8.730;2023-04-24T02:28:42;9.40;99.90
27848;DHT22;15212;48.830;8.730;2023-04-24T02:31:11;9.40;99.90
27848;DHT22;15212;48.830;8.730;2023-04-24T02:33:39;9.30;99.90
27848;DHT22;15212;48.830;8.730;2023-04-24T02:36:08;9.30;99.90
27848;DHT22;15212;48.830;8.730;2023-04-24T02:38:36;9.20;99.90
27848;DHT22;15212;48.830;8.730;2023-04-24T02:41:05;9.20;99.90
27848;DHT22;15212;48.830;8.730;2023-04-24T02:43:33;9.20;99.90
27848;DHT22;15212;48.830;8.730;2023-04-24T02:46:01;9.10;99.90
27848;DHT22;15212;48.830;8.730;2023-04-24T02:48:30;9.10;99.90
27848;DHT22;15212;48.830;8.730;2023-04-24T02:50:58;9.00;99.90
27848;DHT22;15212;48.830;8.730;2023-04-24T02:53:26;9.00;99.90
27848;DHT22;15212;48.830;8.730;2023-04-24T02:55:57;8.90;99.90
27848;DHT22;15212;48.830;8.730;2023-04-24T02:58:25;8.90;99.90
27848;DHT22;15212;48.830;8.730;2023-04-24T03:00:54;8.90;99.90
27848;DHT22;15212;48.830;8.730;2023-04-24T03:03:24;8.90;99.90
27848;DHT22;15212;48.830;8.730;2023-04-24T03:05:52;8.90;99.90
27848;DHT22;15212;48.830;8.730;2023-04-24T03:08:22;8.90;99.90
27848;DHT22;15212;48.830;8.730;2023-04-24T03:10:50;8.90;99.90
27848;DHT22;15212;48.830;8.730;2023-04-24T03:13:18;8.90;99.90
27848;DHT22;15212;48.830;8.730;2023-04-24T03:15:47;8.90;99.90
27848;DHT22;15212;48.830;8.730;2023-04-24T03:18:15;8.80;99.90
27848;DHT22;15212;48.830;8.730;2023-04-24T03:20:45;8.80;99.90
27848;DHT22;15212;48.830;8.730;2023-04-24T03:23:15;8.80;99.90
27848;DHT22;15212;48.830;8.730;2023-04-24T03:25:43;8.80;99.90
27848;DHT22;15212;48.830;8.730;2023-04-24T03:28:11;8.90;99.90
27848;DHT22;15212;48.830;8.730;2023-04-24T03:30:40;8.80;99.90
27848;DHT22;15212;48.830;8.730;2023-04-24T03:33:08;8.90;99.90
27848;DHT22;15212;48.830;8.730;2023-04-24T03:35:37;8.90;99.90
27848;DHT22;15212;48.830;8.730;2023-04-24T03:38:05;8.90;99.90
27848;DHT22;15212;48.830;8.730;2023-04-24T03:40:33;8.90;99.90
27848;DHT22;15212;48.830;8.730;2023-04-24T03:43:02;8.90;99.90
27848;DHT22;15212;48.830;8.730;2023-04-24T03:45:30;9.00;99.90
27848;DHT22;15212;48.830;8.730;2023-04-24T03:47:59;8.90;99.90
27848;DHT22;15212;48.830;8.730;2023-04-24T03:50:28;8.90;99.90
27848;DHT22;15212;48.830;8.730;2023-04-24T03:52:57;8.80;99.90
27848;DHT22;15212;48.830;8.730;2023-04-24T03:55:25;8.70;99.90
27848;DHT22;15212;48.830;8.730;2023-04-24T03:57:53;8.60;99.90
27848;DHT22;15212;48.830;8.730;2023-04-24T04:00:22;8.50;99.90
27848;DHT22;15212;48.830;8.730;2023-04-24T04:02:51;8.30;99.90
27848;DHT22;15212;48.830;8.730;2023-04-24T04:05:19;8.30;99.90
27848;DHT22;15212;48.830;8.730;2023-04-24T04:07:47;8.30;99.90
27848;DHT22;15212;48.830;8.730;2023-04-24T04:10:16;8.20;99.90
27848;DHT22;15212;48.830;8.730;2023-04-24T04:12:44;8.20;99.90
27848;DHT22;15212;48.830;8.730;2023-04-24T04:15:12;8.10;99.90
27848;DHT22;15212;48.830;8.730;2023-04-24T04:17:41;8.10;99.90
27848;DHT22;15212;48.830;8.730;2023-04-24T04:20:09;8.00;99.90
27848;DHT22;15212;48.830;8.730;2023-04-24T04:22:38;8.00;99.90
27848;DHT22;15212;48.830;8.730;2023-04-24T04:25:07;8.00;99.90
27848;DHT22;15212;48.830;8.730;2023-04-24T04:27:35;7.90;99.90
27848;DHT22;15212;48.830;8.730;2023-04-24T04:30:04;7.90;99.90
27848;DHT22;15212;48.830;8.730;2023-04-24T04:32:34;8.00;99.90
27848;DHT22;15212;48.830;8.730;2023-04-24T04:35:02;7.90;99.90
27848;DHT22;15212;48.830;8.730;2023-04-24T04:37:32;7.90;99.90
27848;DHT22;15212;48.830;8.730;2023-04-24T04:40:01;7.90;99.90
27848;DHT22;15212;48.830;8.730;2023-04-24T04:42:33;7.90;99.90
27848;DHT22;15212;48.830;8.730;2023-04-24T04:45:02;7.80;99.90
27848;DHT22;15212;48.830;8.730;2023-04-24T04:47:30;7.80;99.90
27848;DHT22;15212;48.830;8.730;2023-04-24T04:49:59;7.80;99.90
27848;DHT22;15212;48.830;8.730;2023-04-24T04:52:27;7.80;99.90
27848;DHT22;15212;48.830;8.730;2023-04-24T04:54:56;7.90;99.90
27848;DHT22;15212;48.830;8.730;2023-04-24T04:57:24;7.90;99.90
27848;DHT22;15212;48.830;8.730;2023-04-24T04:59:53;7.90;99.90
27848;DHT22;15212;48.830;8.730;2023-04-24T05:02:21;7.90;99.90
27848;DHT22;15212;48.830;8.730;2023-04-24T05:04:49;7.90;99.90
27848;DHT22;15212;48.830;8.730;2023-04-24T05:07:18;7.90;99.90
27848;DHT22;15212;48.830;8.730;2023-04-24T05:09:46;7.90;99.90
27848;DHT22;15212;48.830;8.730;2023-04-24T05:12:15;7.90;99.90
27848;DHT22;15212;48.830;8.730;2023-04-24T05:14:43;7.90;99.90
27848;DHT22;15212;48.830;8.730;2023-04-24T05:17:11;7.90;99.90
27848;DHT22;15212;48.830;8.730;2023-04-24T05:19:40;7.90;99.90
27848;DHT22;15212;48.830;8.730;2023-04-24T05:22:08;8.00;99.90
27848;DHT22;15212;48.830;8.730;2023-04-24T05:24:38;8.00;99.90
27848;DHT22;15212;48.830;8.730;2023-04-24T05:27:06;8.00;99.90
27848;DHT22;15212;48.830;8.730;2023-04-24T05:29:34;8.00;99.90
27848;DHT22;15212;48.830;8.730;2023-04-24T05:32:03;8.10;99.90
27848;DHT22;15212;48.830;8.730;2023-04-24T05:34:32;8.20;99.90
27848;DHT22;15212;48.830;8.730;2023-04-24T05:37:00;8.30;99.90
27848;DHT22;15212;48.830;8.730;2023-04-24T05:39:29;8.40;99.90
27848;DHT22;15212;48.830;8.730;2023-04-24T05:41:57;8.60;99.90
27848;DHT22;15212;48.830;8.730;2023-04-24T05:44:27;8.70;99.90
27848;DHT22;15212;48.830;8.730;2023-04-24T05:46:56;8.90;99.90
27848;DHT22;15212;48.830;8.730;2023-04-24T05:49:24;9.00;99.90
27848;DHT22;15212;48.830;8.730;2023-04-24T05:51:53;9.20;99.90
27848;DHT22;15212;48.830;8.730;2023-04-24T05:54:21;9.30;99.90
27848;DHT22;15212;48.830;8.730;2023-04-24T05:56:50;9.40;99.90
27848;DHT22;15212;48.830;8.730;2023-04-24T05:59:18;9.60;99.90
27848;DHT22;15212;48.830;8.730;2023-04-24T06:01:47;9.80;99.90
27848;DHT22;15212;48.830;8.730;2023-04-24T06:04:15;9.80;99.90
27848;DHT22;15212;48.830;8.730;2023-04-24T06:06:43;10.00;99.90
27848;DHT22;15212;48.830;8.730;2023-04-24T06:09:12;10.10;99.90
27848;DHT22;15212;48.830;8.730;2023-04-24T06:11:41;10.10;99.90
27848;DHT22;15212;48.830;8.730;2023-04-24T06:14:09;10.00;99.90
27848;DHT22;15212;48.830;8.730;2023-04-24T06:16:37;9.90;99.90
27848;DHT22;15212;48.830;8.730;2023-04-24T06:19:07;9.70;99.90
27848;DHT22;15212;48.830;8.730;2023-04-24T06:21:36;9.70;99.90
27848;DHT22;15212;48.830;8.730;2023-04-24T06:24:04;9.70;99.90
27848;DHT22;15212;48.830;8.730;2023-04-24T06:26:32;10.10;99.90
27848;DHT22;15212;48.830;8.730;2023-04-24T06:29:01;11.10;99.90
27848;DHT22;15212;48.830;8.730;2023-04-24T06:31:29;12.20;99.90
27848;DHT22;15212;48.830;8.730;2023-04-24T06:33:59;13.00;99.90
27848;DHT22;15212;48.830;8.730;2023-04-24T06:36:28;13.00;99.90
27848;DHT22;15212;48.830;8.730;2023-04-24T06:38:57;12.80;99.90
27848;DHT22;15212;48.830;8.730;2023-04-24T06:41:26;12.40;99.90
27848;DHT22;15212;48.830;8.730;2023-04-24T06:43:55;12.00;99.90
27848;DHT22;15212;48.830;8.730;2023-04-24T06:46:24;11.90;99.90
27848;DHT22;15212;48.830;8.730;2023-04-24T06:48:54;11.60;99.90
27848;DHT22;15212;48.830;8.730;2023-04-24T06:51:25;11.30;99.90
27848;DHT22;15212;48.830;8.730;2023-04-24T06:53:54;11.10;99.90
27848;DHT22;15212;48.830;8.730;2023-04-24T06:56:26;10.70;99.90
27848;DHT22;15212;48.830;8.730;2023-04-24T06:58:55;10.20;99.90
27848;DHT22;15212;48.830;8.730;2023-04-24T07:01:23;10.00;99.90
27848;DHT22;15212;48.830;8.730;2023-04-24T07:03:52;10.00;99.90
27848;DHT22;15212;48.830;8.730;2023-04-24T07:06:20;10.00;99.90
27848;DHT22;15212;48.830;8.730;2023-04-24T07:08:50;10.00;99.90
27848;DHT22;15212;48.830;8.730;2023-04-24T07:11:19;10.20;99.90
27848;DHT22;15212;48.830;8.730;2023-04-24T07:13:48;10.40;99.90
27848;DHT22;15212;48.830;8.730;2023-04-24T07:16:17;10.40;99.90
27848;DHT22;15212;48.830;8.730;2023-04-24T07:18:45;10.20;99.90
27848;DHT22;15212;48.830;8.730;2023-04-24T07:21:13;10.30;99.90
27848;DHT22;15212;48.830;8.730;2023-04-24T07:23:42;10.30;99.90
27848;DHT22;15212;48.830;8.730;2023-04-24T07:26:10;10.40;99.90
27848;DHT22;15212;48.830;8.730;2023-04-24T07:28:38;10.20;99.90
27848;DHT22;15212;48.830;8.730;2023-04-24T07:31:07;10.20;99.90
27848;DHT22;15212;48.830;8.730;2023-04-24T07:33:36;10.10;99.90
27848;DHT22;15212;48.830;8.730;2023-04-24T07:36:04;10.00;99.90
27848;DHT22;15212;48.830;8.730;2023-04-24T07:38:33;9.80;99.90
27848;DHT22;15212;48.830;8.730;2023-04-24T07:41:01;9.70;99.90
27848;DHT22;15212;48.830;8.730;2023-04-24T07:43:30;9.60;99.90
27848;DHT22;15212;48.830;8.730;2023-04-24T07:45:58;9.50;99.90
27848;DHT22;15212;48.830;8.730;2023-04-24T07:48:26;9.40;99.90
27848;DHT22;15212;48.830;8.730;2023-04-24T07:50:55;9.30;99.90
27848;DHT22;15212;48.830;8.730;2023-04-24T07:53:23;9.20;99.90
27848;DHT22;15212;48.830;8.730;2023-04-24T07:55:52;8.90;99.90
27848;DHT22;15212;48.830;8.730;2023-04-24T07:58:22;9.00;99.90
27848;DHT22;15212;48.830;8.730;2023-04-24T08:00:51;9.10;99.90
27848;DHT22;15212;48.830;8.730;2023-04-24T08:03:19;9.10;99.90
27848;DHT22;15212;48.830;8.730;2023-04-24T08:05:48;9.10;99.90
27848;DHT22;15212;48.830;8.730;2023-04-24T08:08:17;9.10;99.90
27848;DHT22;15212;48.830;8.730;2023-04-24T08:10:47;9.20;99.90
27848;DHT22;15212;48.830;8.730;2023-04-24T08:13:16;9.30;99.90
27848;DHT22;15212;48.830;8.730;2023-04-24T08:15:44;9.30;99.90
27848;DHT22;15212;48.830;8.730;2023-04-24T08:18:13;9.40;99.90
27848;DHT22;15212;48.830;8.730;2023-04-24T08:20:42;9.60;99.90
27848;DHT22;15212;48.830;8.730;2023-04-24T08:23:11;9.60;99.90
27848;DHT22;15212;48.830;8.730;2023-04-24T08:25:59;9.60;99.90
27848;DHT22;15212;48.830;8.730;2023-04-24T08:28:27;9.60;99.90
27848;DHT22;15212;48.830;8.730;2023-04-24T08:30:56;9.70;99.90
27848;DHT22;15212;48.830;8.730;2023-04-24T08:33:24;9.70;99.90
27848;DHT22;15212;48.830;8.730;2023-04-24T08:35:53;10.00;99.90
27848;DHT22;15212;48.830;8.730;2023-04-24T08:38:21;10.20;99.90
27848;DHT22;15212;48.830;8.730;2023-04-24T08:40:50;10.60;99.90
27848;DHT22;15212;48.830;8.730;2023-04-24T08:43:19;10.40;99.90
27848;DHT22;15212;48.830;8.730;2023-04-24T08:45:49;10.30;99.90
27848;DHT22;15212;48.830;8.730;2023-04-24T08:48:18;10.30;99.90
27848;DHT22;15212;48.830;8.730;2023-04-24T08:50:49;10.30;99.90
27848;DHT22;15212;48.830;8.730;2023-04-24T08:53:18;10.30;99.90
27848;DHT22;15212;48.830;8.730;2023-04-24T08:55:47;10.40;99.90
27848;DHT22;15212;48.830;8.730;2023-04-24T08:58:19;10.40;99.90
27848;DHT22;15212;48.830;8.730;2023-04-24T09:00:48;10.40;99.90
27848;DHT22;15212;48.830;8.730;2023-04-24T09:03:17;10.70;99.90
27848;DHT22;15212;48.830;8.730;2023-04-24T09:05:47;10.70;99.90
27848;DHT22;15212;48.830;8.730;2023-04-24T09:08:18;10.90;99.90
27848;DHT22;15212;48.830;8.730;2023-04-24T09:10:46;10.80;99.90
27848;DHT22;15212;48.830;8.730;2023-04-24T09:13:15;10.60;99.90
27848;DHT22;15212;48.830;8.730;2023-04-24T09:15:43;10.60;99.90
27848;DHT22;15212;48.830;8.730;2023-04-24T09:18:12;10.60;99.90
27848;DHT22;15212;48.830;8.730;2023-04-24T09:21:03;10.20;99.90
27848;DHT22;15212;48.830;8.730;2023-04-24T09:23:34;10.30;99.90
27848;DHT22;15212;48.830;8.730;2023-04-24T09:26:03;10.40;99.90
27848;DHT22;15212;48.830;8.730;2023-04-24T09:28:37;10.50;99.90
27848;DHT22;15212;48.830;8.730;2023-04-24T09:31:18;10.60;99.90
27848;DHT22;15212;48.830;8.730;2023-04-24T09:34:00;10.40;99.90
27848;DHT22;15212;48.830;8.730;2023-04-24T09:36:36;10.40;99.90
27848;DHT22;15212;48.830;8.730;2023-04-24T09:39:09;10.50;99.90
27848;DHT22;15212;48.830;8.730;2023-04-24T09:41:49;10.60;99.90
27848;DHT22;15212;48.830;8.730;2023-04-24T09:44:28;10.60;99.90
27848;DHT22;15212;48.830;8.730;2023-04-24T09:46:58;10.70;99.90
27848;DHT22;15212;48.830;8.730;2023-04-24T09:49:28;10.80;99.90
27848;DHT22;15212;48.830;8.730;2023-04-24T09:52:07;10.90;99.90
27848;DHT22;15212;48.830;8.730;2023-04-24T09:54:37;11.00;99.90
27848;DHT22;15212;48.830;8.730;2023-04-24T09:57:09;11.00;99.90
27848;DHT22;15212;48.830;8.730;2023-04-24T09:59:42;11.00;99.90
27848;DHT22;15212;48.830;8.730;2023-04-24T10:02:19;10.70;99.90
27848;DHT22;15212;48.830;8.730;2023-04-24T10:04:56;10.40;99.90
27848;DHT22;15212;48.830;8.730;2023-04-24T10:07:26;10.20;99.90
27848;DHT22;15212;48.830;8.730;2023-04-24T10:09:55;10.00;99.90
27848;DHT22;15212;48.830;8.730;2023-04-24T10:12:23;9.90;99.90
27848;DHT22;15212;48.830;8.730;2023-04-24T10:14:52;9.70;99.90
27848;DHT22;15212;48.830;8.730;2023-04-24T10:17:21;9.70;99.90
27848;DHT22;15212;48.830;8.730;2023-04-24T10:19:51;9.80;99.90
27848;DHT22;15212;48.830;8.730;2023-04-24T10:22:20;9.70;99.90
27848;DHT22;15212;48.830;8.730;2023-04-24T10:24:50;9.70;99.90
27848;DHT22;15212;48.830;8.730;2023-04-24T10:27:20;9.60;99.90
27848;DHT22;15212;48.830;8.730;2023-04-24T10:29:51;9.50;99.90
27848;DHT22;15212;48.830;8.730;2023-04-24T10:32:21;9.40;99.90
27848;DHT22;15212;48.830;8.730;2023-04-24T10:34:49;9.30;99.90
27848;DHT22;15212;48.830;8.730;2023-04-24T10:37:18;9.20;99.90
27848;DHT22;15212;48.830;8.730;2023-04-24T10:39:48;9.20;99.90
27848;DHT22;15212;48.830;8.730;2023-04-24T10:42:17;9.10;99.90
27848;DHT22;15212;48.830;8.730;2023-04-24T10:44:47;9.10;99.90
27848;DHT22;15212;48.830;8.730;2023-04-24T10:47:16;9.10;99.90
27848;DHT22;15212;48.830;8.730;2023-04-24T10:49:44;9.20;99.90
27848;DHT22;15212;48.830;8.730;2023-04-24T10:52:14;9.50;99.90
27848;DHT22;15212;48.830;8.730;2023-04-24T10:54:45;9.80;99.90
27848;DHT22;15212;48.830;8.730;2023-04-24T10:57:27;10.10;99.90
27848;DHT22;15212;48.830;8.730;2023-04-24T11:00:15;10.20;99.90
27848;DHT22;15212;48.830;8.730;2023-04-24T11:02:48;10.30;99.90
27848;DHT22;15212;48.830;8.730;2023-04-24T11:05:19;10.50;99.90
27848;DHT22;15212;48.830;8.730;2023-04-24T11:08:09;10.50;99.90
27848;DHT22;15212;48.830;8.730;2023-04-24T11:10:46;10.50;99.90
27848;DHT22;15212;48.830;8.730;2023-04-24T11:13:17;10.30;99.90
27848;DHT22;15212;48.830;8.730;2023-04-24T11:16:15;10.10;99.90
27848;DHT22;15212;48.830;8.730;2023-04-24T11:22:01;10.10;99.90
27848;DHT22;15212;48.830;8.730;2023-04-24T11:27:18;10.80;99.90
27848;DHT22;15212;48.830;8.730;2023-04-24T11:29:59;11.10;99.90
27848;DHT22;15212;48.830;8.730;2023-04-24T11:32:42;11.30;99.90
27848;DHT22;15212;48.830;8.730;2023-04-24T11:35:19;11.40;99.90
27848;DHT22;15212;48.830;8.730;2023-04-24T11:37:53;11.20;99.90
27848;DHT22;15212;48.830;8.730;2023-04-24T11:40:23;10.90;99.90
27848;DHT22;15212;48.830;8.730;2023-04-24T11:42:53;10.60;99.90
27848;DHT22;15212;48.830;8.730;2023-04-24T11:45:28;10.30;99.90
27848;DHT22;15212;48.830;8.730;2023-04-24T11:47:57;10.10;99.90
27848;DHT22;15212;48.830;8.730;2023-04-24T11:50:27;10.00;99.90
27848;DHT22;15212;48.830;8.730;2023-04-24T11:52:56;10.00;99.90
27848;DHT22;15212;48.830;8.730;2023-04-24T11:55:27;9.90;99.90
27848;DHT22;15212;48.830;8.730;2023-04-24T11:57:58;10.10;99.90
27848;DHT22;15212;48.830;8.730;2023-04-24T12:00:28;10.20;99.90
27848;DHT22;15212;48.830;8.730;2023-04-24T12:03:10;10.40;99.90
27848;DHT22;15212;48.830;8.730;2023-04-24T12:05:39;10.40;99.90
27848;DHT22;15212;48.830;8.730;2023-04-24T12:08:08;10.50;99.90
27848;DHT22;15212;48.830;8.730;2023-04-24T12:10:36;10.70;99.90
27848;DHT22;15212;48.830;8.730;2023-04-24T12:13:05;10.80;99.90
27848;DHT22;15212;48.830;8.730;2023-04-24T12:15:35;10.80;99.90
27848;DHT22;15212;48.830;8.730;2023-04-24T12:18:04;10.70;99.90
27848;DHT22;15212;48.830;8.730;2023-04-24T12:20:33;10.50;99.90
27848;DHT22;15212;48.830;8.730;2023-04-24T12:23:02;10.10;99.90
27848;DHT22;15212;48.830;8.730;2023-04-24T12:25:34;9.70;99.90
27848;DHT22;15212;48.830;8.730;2023-04-24T12:28:10;9.60;99.90
27848;DHT22;15212;48.830;8.730;2023-04-24T12:30:44;9.60;99.90
27848;DHT22;15212;48.830;8.730;2023-04-24T12:33:20;9.60;99.90
27848;DHT22;15212;48.830;8.730;2023-04-24T12:35:53;9.60;99.90
27848;DHT22;15212;48.830;8.730;2023-04-24T12:38:23;9.70;99.90
27848;DHT22;15212;48.830;8.730;2023-04-24T12:41:13;9.70;99.90
27848;DHT22;15212;48.830;8.730;2023-04-24T12:43:37;9.70;99.90
27848;DHT22;15212;48.830;8.730;2023-04-24T12:46:05;9.80;99.90
27848;DHT22;15212;48.830;8.730;2023-04-24T12:48:34;9.90;99.90
27848;DHT22;15212;48.830;8.730;2023-04-24T12:51:02;10.10;99.90
27848;DHT22;15212;48.830;8.730;2023-04-24T12:53:30;10.30;99.90
27848;DHT22;15212;48.830;8.730;2023-04-24T12:55:59;10.40;99.90
27848;DHT22;15212;48.830;8.730;2023-04-24T12:58:27;10.60;99.90
27848;DHT22;15212;48.830;8.730;2023-04-24T13:00:56;10.80;99.90
27848;DHT22;15212;48.830;8.730;2023-04-24T13:03:24;11.00;99.90
27848;DHT22;15212;48.830;8.730;2023-04-24T13:05:53;11.10;99.90
27848;DHT22;15212;48.830;8.730;2023-04-24T13:08:22;11.20;99.90
27848;DHT22;15212;48.830;8.730;2023-04-24T13:10:50;11.20;99.90
27848;DHT22;15212;48.830;8.730;2023-04-24T13:13:20;11.10;99.90
27848;DHT22;15212;48.830;8.730;2023-04-24T13:15:48;11.00;99.90
27848;DHT22;15212;48.830;8.730;2023-04-24T13:18:17;11.00;99.90
27848;DHT22;15212;48.830;8.730;2023-04-24T13:20:45;11.20;99.90
27848;DHT22;15212;48.830;8.730;2023-04-24T13:23:14;11.10;99.90
27848;DHT22;15212;48.830;8.730;2023-04-24T13:25:43;11.20;99.90
27848;DHT22;15212;48.830;8.730;2023-04-24T13:28:12;11.20;99.90
27848;DHT22;15212;48.830;8.730;2023-04-24T13:30:40;11.30;99.90
27848;DHT22;15212;48.830;8.730;2023-04-24T13:33:08;11.40;99.90
27848;DHT22;15212;48.830;8.730;2023-04-24T13:35:37;11.40;99.90
27848;DHT22;15212;48.830;8.730;2023-04-24T13:38:05;11.50;99.90
27848;DHT22;15212;48.830;8.730;2023-04-24T13:40:34;11.70;99.90
27848;DHT22;15212;48.830;8.730;2023-04-24T13:43:02;11.70;99.90
27848;DHT22;15212;48.830;8.730;2023-04-24T13:45:31;11.60;99.90
27848;DHT22;15212;48.830;8.730;2023-04-24T13:47:59;11.50;99.90
27848;DHT22;15212;48.830;8.730;2023-04-24T13:50:29;11.40;99.90
27848;DHT22;15212;48.830;8.730;2023-04-24T13:52:57;11.40;99.90
27848;DHT22;15212;48.830;8.730;2023-04-24T13:55:28;11.30;99.90
27848;DHT22;15212;48.830;8.730;2023-04-24T13:57:57;11.20;99.90
27848;DHT22;15212;48.830;8.730;2023-04-24T14:00:25;11.00;99.90
27848;DHT22;15212;48.830;8.730;2023-04-24T14:02:54;10.90;99.90
27848;DHT22;15212;48.830;8.730;2023-04-24T14:05:23;10.50;99.90
27848;DHT22;15212;48.830;8.730;2023-04-24T14:07:51;10.30;99.90
27848;DHT22;15212;48.830;8.730;2023-04-24T14:10:20;10.10;99.90
27848;DHT22;15212;48.830;8.730;2023-04-24T14:12:48;10.00;99.90
27848;DHT22;15212;48.830;8.730;2023-04-24T14:15:17;10.00;99.90
27848;DHT22;15212;48.830;8.730;2023-04-24T14:17:47;10.00;99.90
27848;DHT22;15212;48.830;8.730;2023-04-24T14:20:16;10.20;99.90
27848;DHT22;15212;48.830;8.730;2023-04-24T14:22:44;10.30;99.90
27848;DHT22;15212;48.830;8.730;2023-04-24T14:25:13;10.40;99.90
27848;DHT22;15212;48.830;8.730;2023-04-24T14:27:41;10.50;99.90
27848;DHT22;15212;48.830;8.730;2023-04-24T14:30:10;10.40;99.90
27848;DHT22;15212;48.830;8.730;2023-04-24T14:32:39;10.40;99.90
27848;DHT22;15212;48.830;8.730;2023-04-24T14:35:07;10.50;99.90
27848;DHT22;15212;48.830;8.730;2023-04-24T14:37:36;10.60;99.90
27848;DHT22;15212;48.830;8.730;2023-04-24T14:40:08;10.60;99.90
27848;DHT22;15212;48.830;8.730;2023-04-24T14:42:37;10.40;99.90
27848;DHT22;15212;48.830;8.730;2023-04-24T14:45:06;10.40;99.90
27848;DHT22;15212;48.830;8.730;2023-04-24T14:47:36;10.30;99.90
27848;DHT22;15212;48.830;8.730;2023-04-24T14:50:05;10.20;99.90
27848;DHT22;15212;48.830;8.730;2023-04-24T14:52:34;9.90;99.90
27848;DHT22;15212;48.830;8.730;2023-04-24T14:55:04;9.70;99.90
27848;DHT22;15212;48.830;8.730;2023-04-24T14:57:34;9.60;99.90
27848;DHT22;15212;48.830;8.730;2023-04-24T15:00:04;9.60;99.90
27848;DHT22;15212;48.830;8.730;2023-04-24T15:02:35;9.50;99.90
27848;DHT22;15212;48.830;8.730;2023-04-24T15:05:06;9.60;99.90
27848;DHT22;15212;48.830;8.730;2023-04-24T15:07:35;9.70;99.90
27848;DHT22;15212;48.830;8.730;2023-04-24T15:10:03;9.70;99.90
27848;DHT22;15212;48.830;8.730;2023-04-24T15:12:32;9.70;99.90
27848;DHT22;15212;48.830;8.730;2023-04-24T15:15:01;9.70;99.90
27848;DHT22;15212;48.830;8.730;2023-04-24T15:17:29;9.60;99.90
27848;DHT22;15212;48.830;8.730;2023-04-24T15:19:58;9.60;99.90
27848;DHT22;15212;48.830;8.730;2023-04-24T15:22:27;9.60;99.90
27848;DHT22;15212;48.830;8.730;2023-04-24T15:24:55;9.80;99.90
27848;DHT22;15212;48.830;8.730;2023-04-24T15:27:23;9.90;99.90
27848;DHT22;15212;48.830;8.730;2023-04-24T15:29:52;10.00;99.90
27848;DHT22;15212;48.830;8.730;2023-04-24T15:32:20;10.20;99.90
27848;DHT22;15212;48.830;8.730;2023-04-24T15:34:49;10.30;99.90
27848;DHT22;15212;48.830;8.730;2023-04-24T15:37:17;10.40;99.90
27848;DHT22;15212;48.830;8.730;2023-04-24T15:39:46;10.50;99.90
27848;DHT22;15212;48.830;8.730;2023-04-24T15:42:14;10.60;99.90
27848;DHT22;15212;48.830;8.730;2023-04-24T15:44:42;10.60;99.90
27848;DHT22;15212;48.830;8.730;2023-04-24T15:47:11;10.60;99.90
27848;DHT22;15212;48.830;8.730;2023-04-24T15:49:40;10.70;99.90
27848;DHT22;15212;48.830;8.730;2023-04-24T15:52:08;10.70;99.90
27848;DHT22;15212;48.830;8.730;2023-04-24T15:54:37;10.80;99.90
27848;DHT22;15212;48.830;8.730;2023-04-24T15:57:07;10.80;99.90
27848;DHT22;15212;48.830;8.730;2023-04-24T15:59:35;10.80;99.90
27848;DHT22;15212;48.830;8.730;2023-04-24T16:02:03;10.90;99.90